createdAt,value
2023-05-13T00:00:38.852Z,8.00
2023-05-13T00:03:06.680Z,8.00
2023-05-13T00:05:34.427Z,8.00
2023-05-13T00:08:06.949Z,7.90
2023-05-13T00:10:35.677Z,7.80
2023-05-13T00:13:03.471Z,7.90
2023-05-13T00:15:31.107Z,8.00
2023-05-13T00:17:58.824Z,8.00
2023-05-13T00:20:26.495Z,8.00
2023-05-13T00:22:54.193Z,7.90
2023-05-13T00:25:21.735Z,7.90
2023-05-13T00:27:49.403Z,7.80
2023-05-13T00:30:16.978Z,7.90
2023-05-13T00:32:44.571Z,8.00
2023-05-13T00:35:12.534Z,8.00
2023-05-13T00:37:40.105Z,8.00
2023-05-13T00:40:23.738Z,8.00
2023-05-13T00:42:52.200Z,8.00
2023-05-13T00:45:20.858Z,8.00
2023-05-13T00:47:49.762Z,8.00
2023-05-13T00:50:17.469Z,7.90
2023-05-13T00:52:46.255Z,8.00
2023-05-13T00:55:13.972Z,8.00
2023-05-13T00:57:41.667Z,7.90
2023-05-13T01:00:10.612Z,7.90
2023-05-13T01:03:02.887Z,7.80
2023-05-13T01:05:47.676Z,7.80
2023-05-13T01:08:28.256Z,7.90
2023-05-13T01:11:01.401Z,7.90
2023-05-13T01:13:37.619Z,7.90
2023-05-13T01:16:14.994Z,8.00
2023-05-13T01:18:53.726Z,7.90
2023-05-13T01:21:28.585Z,8.10
2023-05-13T01:23:56.402Z,8.10
2023-05-13T01:26:26.749Z,8.10
2023-05-13T01:28:54.819Z,8.10
2023-05-13T01:31:24.040Z,8.10
2023-05-13T01:33:52.132Z,8.10
2023-05-13T01:36:19.954Z,8.10
2023-05-13T01:38:48.796Z,8.10
2023-05-13T01:41:16.586Z,8.00
2023-05-13T01:43:44.371Z,8.00
2023-05-13T01:46:13.499Z,8.00
2023-05-13T01:48:41.136Z,8.00
2023-05-13T01:51:09.665Z,8.00
2023-05-13T01:53:37.340Z,7.80
2023-05-13T01:56:05.460Z,7.90
2023-05-13T01:58:33.051Z,7.80
2023-05-13T02:01:01.059Z,7.90
2023-05-13T02:03:28.706Z,7.90
2023-05-13T02:05:56.553Z,7.80
2023-05-13T02:08:25.482Z,7.80
2023-05-13T02:10:57.483Z,7.80
2023-05-13T02:13:26.098Z,7.80
2023-05-13T02:15:54.373Z,7.70
2023-05-13T02:18:22.594Z,7.70
2023-05-13T02:20:50.664Z,7.60
2023-05-13T02:23:18.880Z,7.50
2023-05-13T02:25:46.757Z,7.60
2023-05-13T02:28:14.532Z,7.70
2023-05-13T02:30:42.525Z,7.70
2023-05-13T02:33:10.141Z,7.60
2023-05-13T02:35:37.883Z,7.50
2023-05-13T02:38:05.974Z,7.30
2023-05-13T02:40:35.256Z,7.30
2023-05-13T02:43:03.284Z,7.30
2023-05-13T02:45:44.294Z,7.20
2023-05-13T02:48:12.327Z,7.30
2023-05-13T02:50:41.026Z,7.30
2023-05-13T02:53:10.491Z,7.30
2023-05-13T02:55:42.513Z,7.30
2023-05-13T02:58:10.154Z,7.30
2023-05-13T03:00:37.835Z,7.30
2023-05-13T03:03:05.882Z,7.40
2023-05-13T03:05:34.203Z,7.50
2023-05-13T03:08:01.801Z,7.60
2023-05-13T03:10:29.357Z,7.50
2023-05-13T03:12:56.913Z,7.50
2023-05-13T03:15:24.461Z,7.60
2023-05-13T03:17:52.059Z,7.70
2023-05-13T03:20:21.564Z,7.60
2023-05-13T03:22:49.557Z,7.70
2023-05-13T03:25:17.286Z,7.60
2023-05-13T03:27:49.750Z,7.60
2023-05-13T03:30:20.088Z,7.60
2023-05-13T03:32:54.677Z,7.70
2023-05-13T03:35:22.721Z,7.70
2023-05-13T03:37:50.977Z,7.80
2023-05-13T03:40:19.593Z,7.80
2023-05-13T03:42:47.660Z,7.60
2023-05-13T03:45:15.356Z,7.70
2023-05-13T03:47:47.019Z,7.70
2023-05-13T03:50:17.564Z,7.80
2023-05-13T03:52:47.249Z,7.80
2023-05-13T03:55:16.492Z,7.80
2023-05-13T03:57:48.430Z,7.70
2023-05-13T04:00:18.304Z,7.60
2023-05-13T04:02:48.105Z,7.70
2023-05-13T04:05:15.967Z,7.80
2023-05-13T04:07:43.618Z,7.80
2023-05-13T04:10:14.557Z,7.90
2023-05-13T04:12:43.228Z,8.10
2023-05-13T04:15:11.168Z,8.20
2023-05-13T04:17:38.877Z,8.20
2023-05-13T04:20:08.014Z,8.20
2023-05-13T04:22:35.896Z,8.20
2023-05-13T04:25:03.846Z,8.20
2023-05-13T04:27:31.662Z,8.20
2023-05-13T04:30:11.683Z,8.20
2023-05-13T04:32:41.450Z,8.20
2023-05-13T04:35:10.424Z,8.20
2023-05-13T04:37:38.627Z,8.30
2023-05-13T04:40:09.258Z,8.30
2023-05-13T04:42:37.176Z,8.30
2023-05-13T04:45:05.347Z,8.40
2023-05-13T04:47:35.401Z,8.40
2023-05-13T04:50:03.530Z,8.40
2023-05-13T04:52:32.978Z,8.50
2023-05-13T04:55:00.676Z,8.50
2023-05-13T04:57:29.391Z,8.40
2023-05-13T04:59:57.351Z,8.40
2023-05-13T05:02:25.740Z,8.30
2023-05-13T05:04:53.769Z,8.50
2023-05-13T05:07:21.396Z,8.60
2023-05-13T05:09:49.361Z,8.60
2023-05-13T05:12:17.220Z,8.70
2023-05-13T05:14:44.790Z,8.90
2023-05-13T05:17:12.447Z,8.70
2023-05-13T05:19:40.339Z,8.70
2023-05-13T05:22:08.997Z,8.80
2023-05-13T05:24:44.234Z,8.90
2023-05-13T05:27:21.560Z,8.90
2023-05-13T05:29:49.529Z,9.00
2023-05-13T05:32:17.916Z,9.00
2023-05-13T05:34:45.700Z,8.80
2023-05-13T05:37:13.260Z,8.80
2023-05-13T05:39:42.201Z,8.80
2023-05-13T05:42:09.914Z,8.80
2023-05-13T05:44:37.484Z,8.90
2023-05-13T05:47:05.617Z,9.00
2023-05-13T05:49:33.425Z,9.00
2023-05-13T05:52:01.060Z,9.10
2023-05-13T05:54:28.858Z,9.10
2023-05-13T05:56:56.559Z,9.20
2023-05-13T05:59:24.246Z,9.20
2023-05-13T06:01:52.650Z,9.10
2023-05-13T06:04:21.675Z,9.30
2023-05-13T06:06:49.276Z,9.40
2023-05-13T06:09:17.066Z,9.50
2023-05-13T06:11:44.624Z,9.60
2023-05-13T06:14:12.449Z,9.70
2023-05-13T06:16:40.007Z,9.70
2023-05-13T06:19:07.803Z,9.80
2023-05-13T06:21:36.664Z,9.70
2023-05-13T06:24:04.659Z,9.80
2023-05-13T06:26:32.549Z,9.70
2023-05-13T06:29:00.573Z,9.50
2023-05-13T06:31:28.473Z,9.60
2023-05-13T06:33:56.250Z,9.60
2023-05-13T06:36:29.917Z,9.80
2023-05-13T06:39:01.871Z,9.80
2023-05-13T06:41:36.698Z,9.90
2023-05-13T06:44:10.350Z,9.80
2023-05-13T06:46:40.590Z,10.00
2023-05-13T06:49:11.059Z,10.00
2023-05-13T06:51:39.182Z,9.90
2023-05-13T06:54:06.823Z,9.90
2023-05-13T06:56:34.869Z,9.90
2023-05-13T07:02:43.492Z,9.90
2023-05-13T07:05:18.118Z,9.90
2023-05-13T07:11:20.044Z,9.80
2023-05-13T07:13:49.513Z,9.90
2023-05-13T07:16:31.976Z,9.70
2023-05-13T07:19:07.287Z,9.70
2023-05-13T07:21:40.942Z,9.90
2023-05-13T07:24:51.460Z,9.90
2023-05-13T07:27:58.158Z,10.00
2023-05-13T07:30:36.400Z,10.20
2023-05-13T07:33:25.154Z,10.10
2023-05-13T07:36:05.166Z,10.20
2023-05-13T07:38:54.076Z,10.20
2023-05-13T07:41:22.186Z,10.30
2023-05-13T07:43:50.216Z,10.10
2023-05-13T07:46:17.744Z,10.30
2023-05-13T07:48:45.556Z,10.70
2023-05-13T07:51:13.062Z,10.90
2023-05-13T07:53:42.358Z,11.10
2023-05-13T07:56:10.072Z,11.30
2023-05-13T07:58:37.710Z,11.30
2023-05-13T08:01:05.359Z,11.40
2023-05-13T08:03:33.134Z,11.40
2023-05-13T08:06:00.915Z,11.60
2023-05-13T08:08:28.611Z,11.70
2023-05-13T08:10:56.636Z,11.70
2023-05-13T08:13:24.308Z,11.80
2023-05-13T08:15:52.638Z,12.00
2023-05-13T08:18:20.657Z,12.60
2023-05-13T08:20:48.381Z,12.80
2023-05-13T08:23:16.120Z,12.60
2023-05-13T08:25:43.641Z,12.90
2023-05-13T08:28:11.417Z,13.00
2023-05-13T08:30:42.183Z,13.00
2023-05-13T08:33:11.415Z,13.00
2023-05-13T08:35:39.895Z,12.90
2023-05-13T08:38:10.082Z,12.80
2023-05-13T08:40:38.026Z,12.80
2023-05-13T08:43:06.730Z,12.90
2023-05-13T08:45:36.516Z,12.90
2023-05-13T08:48:05.737Z,13.10
2023-05-13T08:50:33.968Z,12.90
2023-05-13T08:53:01.996Z,12.90
2023-05-13T08:55:29.695Z,12.90
2023-05-13T08:57:57.607Z,13.40
2023-05-13T09:00:25.572Z,14.10
2023-05-13T09:02:53.473Z,14.70
2023-05-13T09:05:22.523Z,14.20
2023-05-13T09:07:50.867Z,13.40
2023-05-13T09:10:19.211Z,13.30
2023-05-13T09:12:55.143Z,13.10
2023-05-13T09:15:25.392Z,13.00
2023-05-13T09:17:59.415Z,12.80
2023-05-13T09:20:27.522Z,12.80
2023-05-13T09:23:01.917Z,12.80
2023-05-13T09:25:30.238Z,12.90
2023-05-13T09:27:59.607Z,13.30
2023-05-13T09:30:33.693Z,14.40
2023-05-13T09:33:14.323Z,15.30
2023-05-13T09:35:50.200Z,15.10
2023-05-13T09:38:19.734Z,14.60
2023-05-13T09:40:55.072Z,14.80
2023-05-13T09:43:23.889Z,15.00
2023-05-13T09:45:56.500Z,15.40
2023-05-13T09:48:26.803Z,15.70
2023-05-13T09:50:56.434Z,16.20
2023-05-13T09:53:28.559Z,16.50
2023-05-13T09:56:00.115Z,16.80
2023-05-13T09:58:29.336Z,16.90
2023-05-13T10:00:57.737Z,17.60
2023-05-13T10:03:25.739Z,16.90
2023-05-13T10:05:53.780Z,17.10
2023-05-13T10:08:22.640Z,17.40
2023-05-13T10:10:51.068Z,17.40
2023-05-13T10:13:23.493Z,17.40
2023-05-13T10:15:53.612Z,17.10
2023-05-13T10:18:23.889Z,16.70
2023-05-13T10:20:53.961Z,16.20
2023-05-13T10:23:25.057Z,15.50
2023-05-13T10:25:54.461Z,15.00
2023-05-13T10:28:22.534Z,14.50
2023-05-13T10:30:55.102Z,14.60
2023-05-13T10:33:29.775Z,14.90
2023-05-13T10:36:20.486Z,15.20
2023-05-13T10:38:57.995Z,15.30
2023-05-13T10:41:47.257Z,15.30
2023-05-13T10:44:14.862Z,15.60
2023-05-13T10:46:43.492Z,15.90
2023-05-13T10:49:16.170Z,16.00
2023-05-13T10:51:49.272Z,15.90
2023-05-13T10:54:22.003Z,16.00
2023-05-13T10:56:57.701Z,15.70
2023-05-13T10:59:25.289Z,15.20
2023-05-13T11:01:54.623Z,14.90
2023-05-13T11:04:25.455Z,14.70
2023-05-13T11:06:53.349Z,15.00
2023-05-13T11:09:21.180Z,15.50
2023-05-13T11:11:53.076Z,15.40
2023-05-13T11:14:22.393Z,15.30
2023-05-13T11:17:02.133Z,15.00
2023-05-13T11:19:36.267Z,15.00
2023-05-13T11:22:16.739Z,15.20
2023-05-13T11:25:06.696Z,15.20
2023-05-13T11:27:47.344Z,15.40
2023-05-13T11:30:26.483Z,15.70
2023-05-13T11:32:58.427Z,16.00
2023-05-13T11:35:28.970Z,16.20
2023-05-13T11:37:59.829Z,16.20
2023-05-13T11:40:35.139Z,15.90
2023-05-13T11:43:05.234Z,16.40
2023-05-13T11:45:33.877Z,16.50
2023-05-13T11:48:19.139Z,16.10
2023-05-13T11:50:46.948Z,15.90
2023-05-13T11:53:22.234Z,15.80
2023-05-13T11:55:50.333Z,15.80
2023-05-13T11:58:18.035Z,15.80
2023-05-13T12:00:46.748Z,15.80
2023-05-13T12:03:16.597Z,15.40
2023-05-13T12:05:45.461Z,15.40
2023-05-13T12:08:15.597Z,15.20
2023-05-13T12:10:46.519Z,15.10
2023-05-13T12:13:15.795Z,14.90
2023-05-13T12:15:43.679Z,15.00
2023-05-13T12:18:11.778Z,15.00
2023-05-13T12:20:39.518Z,14.90
2023-05-13T12:23:14.576Z,14.90
2023-05-13T12:25:48.964Z,15.00
2023-05-13T12:28:24.759Z,14.70
2023-05-13T12:30:57.151Z,14.80
2023-05-13T12:55:40.057Z,14.50
2023-05-13T12:58:11.124Z,14.80
2023-05-13T13:00:38.875Z,14.80
2023-05-13T13:03:08.501Z,14.60
2023-05-13T13:05:36.656Z,14.40
2023-05-13T13:08:07.280Z,14.20
2023-05-13T13:10:34.878Z,14.20
2023-05-13T13:13:02.815Z,14.20
2023-05-13T13:15:30.707Z,14.20
2023-05-13T13:17:59.032Z,13.80
2023-05-13T13:37:47.934Z,13.80
2023-05-13T13:40:15.657Z,13.90
2023-05-13T13:42:45.015Z,13.90
2023-05-13T13:45:14.137Z,13.90
2023-05-13T13:47:42.316Z,13.80
2023-05-13T13:50:10.516Z,14.20
2023-05-13T13:52:38.274Z,14.40
2023-05-13T13:55:07.051Z,14.70
2023-05-13T13:57:34.882Z,15.00
2023-05-13T14:00:02.641Z,15.20
2023-05-13T14:02:33.095Z,15.30
2023-05-13T14:05:01.028Z,15.40
2023-05-13T14:07:29.849Z,15.60
2023-05-13T14:09:59.536Z,15.70
2023-05-13T14:12:28.981Z,15.20
2023-05-13T14:14:56.946Z,15.20
2023-05-13T14:17:24.750Z,15.00
2023-05-13T14:19:54.292Z,15.00
2023-05-13T14:22:23.713Z,15.00
2023-05-13T14:24:54.684Z,15.20
2023-05-13T14:27:24.560Z,15.00
2023-05-13T14:29:52.513Z,14.90
2023-05-13T14:32:20.488Z,14.90
2023-05-13T14:34:48.196Z,14.90
2023-05-13T14:37:15.941Z,14.90
2023-05-13T14:39:43.662Z,14.80
2023-05-13T14:42:11.751Z,14.90
2023-05-13T14:44:41.579Z,14.90
2023-05-13T14:47:09.677Z,14.80
2023-05-13T14:49:37.302Z,14.70
2023-05-13T14:52:05.692Z,14.60
2023-05-13T14:54:35.768Z,14.60
2023-05-13T14:57:05.649Z,14.50
2023-05-13T14:59:34.016Z,14.30
2023-05-13T15:02:02.936Z,14.10
2023-05-13T15:04:30.890Z,14.00
2023-05-13T15:06:59.301Z,13.90
2023-05-13T15:09:26.983Z,14.00
2023-05-13T15:11:54.671Z,13.70
2023-05-13T15:14:25.682Z,13.80
2023-05-13T15:16:54.341Z,13.90
2023-05-13T15:19:23.939Z,13.80
2023-05-13T15:21:51.596Z,13.80
2023-05-13T15:24:35.072Z,13.80
2023-05-13T15:27:16.279Z,13.70
2023-05-13T15:29:46.142Z,13.50
2023-05-13T15:32:14.206Z,13.40
2023-05-13T15:34:41.818Z,13.40
2023-05-13T15:37:09.518Z,13.40
2023-05-13T15:39:37.175Z,13.50
2023-05-13T15:42:04.966Z,13.40
2023-05-13T15:44:32.624Z,13.00
2023-05-13T15:47:00.592Z,13.10
2023-05-13T15:49:28.352Z,13.20
2023-05-13T15:51:56.540Z,13.10
2023-05-13T15:54:24.222Z,13.30
2023-05-13T15:56:52.989Z,13.40
2023-05-13T15:59:20.656Z,13.10
2023-05-13T16:01:49.331Z,12.90
2023-05-13T16:04:18.255Z,12.30
2023-05-13T16:06:45.911Z,12.40
2023-05-13T16:09:13.516Z,12.20
2023-05-13T16:11:42.949Z,12.00
2023-05-13T16:14:10.727Z,11.70
2023-05-13T16:16:38.593Z,11.70
2023-05-13T16:19:06.519Z,11.40
2023-05-13T16:21:34.772Z,11.40
2023-05-13T16:24:02.593Z,11.30
2023-05-13T16:26:30.379Z,11.40
2023-05-13T16:28:57.993Z,11.30
2023-05-13T16:31:25.724Z,11.20
2023-05-13T16:33:53.344Z,11.40
2023-05-13T16:36:21.065Z,11.60
2023-05-13T16:38:49.009Z,11.50
2023-05-13T16:41:16.654Z,11.60
2023-05-13T16:43:44.474Z,11.70
2023-05-13T16:46:12.174Z,11.70
2023-05-13T16:48:39.913Z,11.80
2023-05-13T16:51:07.661Z,11.50
2023-05-13T16:53:35.663Z,11.50
2023-05-13T16:56:03.489Z,11.40
2023-05-13T16:58:33.257Z,11.20
2023-05-13T17:01:01.165Z,11.10
2023-05-13T17:03:29.034Z,11.00
2023-05-13T17:05:56.797Z,10.90
2023-05-13T17:08:24.664Z,10.70
2023-05-13T17:10:52.375Z,10.70
2023-05-13T17:13:20.029Z,10.60
2023-05-13T17:15:47.814Z,10.50
2023-05-13T17:18:16.105Z,10.60
2023-05-13T17:20:44.199Z,10.50
2023-05-13T17:23:11.926Z,10.50
2023-05-13T17:25:39.670Z,10.50
2023-05-13T17:28:08.113Z,10.40
2023-05-13T17:30:35.756Z,10.30
2023-05-13T17:33:03.523Z,10.10
2023-05-13T17:35:31.344Z,10.10
2023-05-13T17:37:58.958Z,10.00
2023-05-13T17:40:26.619Z,10.00
2023-05-13T17:42:54.328Z,9.90
2023-05-13T17:45:23.349Z,9.80
2023-05-13T17:47:51.192Z,9.80
2023-05-13T17:50:18.985Z,9.60
2023-05-13T17:52:46.849Z,9.60
2023-05-13T17:55:14.770Z,9.60
2023-05-13T17:57:42.573Z,9.50
2023-05-13T18:00:10.856Z,9.40
2023-05-13T18:02:40.252Z,9.40
2023-05-13T18:05:09.601Z,9.40
2023-05-13T18:07:37.256Z,9.40
2023-05-13T18:10:05.534Z,9.40
2023-05-13T18:12:33.589Z,9.20
2023-05-13T18:15:01.364Z,9.30
2023-05-13T18:17:29.212Z,9.40
2023-05-13T18:19:57.058Z,9.40
2023-05-13T18:22:24.779Z,9.30
2023-05-13T18:24:52.380Z,9.30
2023-05-13T18:27:19.995Z,9.30
2023-05-13T18:29:47.730Z,9.30
2023-05-13T18:32:15.367Z,9.20
2023-05-13T18:34:43.051Z,9.20
2023-05-13T18:37:10.663Z,9.20
2023-05-13T18:39:38.312Z,9.10
2023-05-13T18:42:06.769Z,9.10
2023-05-13T18:44:34.517Z,9.10
2023-05-13T18:47:02.176Z,9.10
2023-05-13T18:49:29.975Z,9.00
2023-05-13T18:51:57.655Z,8.90
2023-05-13T18:54:29.285Z,8.80
2023-05-13T18:56:57.157Z,8.70
2023-05-13T18:59:24.978Z,8.70
2023-05-13T19:01:52.900Z,8.60
2023-05-13T19:04:20.772Z,8.60
2023-05-13T19:06:48.640Z,8.60
2023-05-13T19:09:16.570Z,8.60
2023-05-13T19:11:44.413Z,8.60
2023-05-13T19:14:12.020Z,8.50
2023-05-13T19:16:39.824Z,8.60
2023-05-13T19:19:07.551Z,8.60
2023-05-13T19:21:35.494Z,8.60
2023-05-13T19:24:03.471Z,8.60
2023-05-13T19:26:31.158Z,8.60
2023-05-13T19:28:58.941Z,8.60
2023-05-13T19:31:27.464Z,8.40
2023-05-13T19:33:55.318Z,8.50
2023-05-13T19:36:26.258Z,8.60
2023-05-13T19:38:55.262Z,8.50
2023-05-13T19:41:22.840Z,8.50
2023-05-13T19:43:50.589Z,8.50
2023-05-13T19:46:18.290Z,8.50
2023-05-13T19:48:46.303Z,8.50
2023-05-13T19:51:16.464Z,8.40
2023-05-13T19:53:44.177Z,8.40
2023-05-13T19:56:12.183Z,8.50
2023-05-13T19:58:39.850Z,8.50
2023-05-13T20:01:08.200Z,8.50
2023-05-13T20:03:35.933Z,8.40
2023-05-13T20:06:03.741Z,8.50
2023-05-13T20:08:33.280Z,8.50
2023-05-13T20:11:00.944Z,8.50
2023-05-13T20:13:28.533Z,8.50
2023-05-13T20:15:56.205Z,8.50
2023-05-13T20:18:23.881Z,8.40
2023-05-13T20:20:51.751Z,8.50
2023-05-13T20:23:20.151Z,8.50
2023-05-13T20:25:47.788Z,8.40
2023-05-13T20:28:15.818Z,8.30
2023-05-13T20:30:43.428Z,8.30
2023-05-13T20:33:11.248Z,8.30
2023-05-13T20:35:38.973Z,8.40
2023-05-13T20:38:07.438Z,8.40
2023-05-13T20:40:35.069Z,8.50
2023-05-13T20:43:04.604Z,8.50
2023-05-13T20:45:33.426Z,8.40
2023-05-13T20:48:01.221Z,8.40
2023-05-13T20:50:29.113Z,8.40
2023-05-13T20:52:56.744Z,8.40
2023-05-13T20:55:24.420Z,8.40
2023-05-13T20:57:52.022Z,8.40
2023-05-13T21:00:19.894Z,8.40
2023-05-13T21:02:48.845Z,8.40
2023-05-13T21:05:16.528Z,8.40
2023-05-13T21:08:14.000Z,8.40
2023-05-13T21:10:42.060Z,8.40
2023-05-13T21:13:10.540Z,8.50
2023-05-13T21:15:38.283Z,8.50
2023-05-13T21:18:06.302Z,8.50
2023-05-13T21:20:34.278Z,8.50
2023-05-13T21:23:01.972Z,8.50
2023-05-13T21:25:30.198Z,8.40
2023-05-13T21:28:01.303Z,8.40
2023-05-13T21:30:33.344Z,8.40
2023-05-13T21:33:01.239Z,8.40
2023-05-13T21:35:29.074Z,8.40
2023-05-13T21:38:04.771Z,8.40
2023-05-13T21:40:39.233Z,8.40
2023-05-13T21:43:06.889Z,8.50
2023-05-13T21:45:34.968Z,8.50
2023-05-13T21:48:02.805Z,8.50
2023-05-13T21:50:30.685Z,8.50
2023-05-13T21:52:58.530Z,8.40
2023-05-13T21:55:26.266Z,8.30
2023-05-13T21:57:54.105Z,8.30
2023-05-13T22:00:22.055Z,8.20
2023-05-13T22:02:51.506Z,8.20
2023-05-13T22:05:19.227Z,8.20
2023-05-13T22:07:46.894Z,8.20
2023-05-13T22:10:14.550Z,8.10
2023-05-13T22:12:42.277Z,8.10
2023-05-13T22:15:10.623Z,8.10
2023-05-13T22:17:38.459Z,8.10
2023-05-13T22:20:06.962Z,8.20
2023-05-13T22:22:34.770Z,8.10
2023-05-13T22:25:03.381Z,8.20
2023-05-13T22:27:31.010Z,8.20
2023-05-13T22:29:59.182Z,8.20
2023-05-13T22:32:26.960Z,8.20
2023-05-13T22:34:54.815Z,8.20
2023-05-13T22:37:22.420Z,8.30
2023-05-13T22:39:50.235Z,8.30
2023-05-13T22:42:17.916Z,8.40
2023-05-13T22:44:45.714Z,8.40
2023-05-13T22:47:13.343Z,8.40
2023-05-13T22:49:41.202Z,8.40
2023-05-13T22:52:09.264Z,8.40
2023-05-13T22:54:36.900Z,8.40
2023-05-13T22:57:04.702Z,8.40
2023-05-13T22:59:32.366Z,8.40
2023-05-13T23:02:00.251Z,8.30
2023-05-13T23:04:28.788Z,8.30
2023-05-13T23:06:56.674Z,8.30
2023-05-13T23:09:24.412Z,8.40
2023-05-13T23:11:52.098Z,8.40
2023-05-13T23:14:19.801Z,8.50
2023-05-13T23:16:47.607Z,8.40
2023-05-13T23:19:15.345Z,8.40
2023-05-13T23:21:43.043Z,8.40
2023-05-13T23:24:10.681Z,8.40
2023-05-13T23:26:38.546Z,8.30
2023-05-13T23:29:06.374Z,8.20
2023-05-13T23:31:34.074Z,8.20
2023-05-13T23:34:01.874Z,8.30
2023-05-13T23:36:29.489Z,8.40
2023-05-13T23:38:57.116Z,8.40
2023-05-13T23:41:24.828Z,8.40
2023-05-13T23:43:52.572Z,8.40
2023-05-13T23:46:20.241Z,8.40
2023-05-13T23:48:48.239Z,8.30
2023-05-13T23:51:15.872Z,8.40
2023-05-13T23:53:43.621Z,8.50
2023-05-13T23:56:11.622Z,8.50
2023-05-13T23:58:39.321Z,8.50
